Time;durP1;ratioP1;P1;durP2;ratioP2;P2;SDS_P1;SDS_P2;PMS_P1;PMS_P2;Temp;Humidity;BMP_temperature;BMP_pressure;BME280_temperature;BME280_humidity;BME280_pressure;Samples;Min_cycle;Max_cycle;Signal;HPM_P1;HPM_P2
2023/12/01 00:00:28;;;;;;;54.25;24.80;;;0.70;99.90;;;;;;4975307;28;20054;-74
2023/12/01 00:03:15;;;;;;;48.63;23.02;;;0.80;99.90;;;;;;4954272;28;20039;-74
2023/12/01 00:06:03;;;;;;;47.67;22.23;;;0.70;99.90;;;;;;4964591;28;20047;-74
2023/12/01 00:08:50;;;;;;;49.15;22.73;;;0.70;99.90;;;;;;4969832;28;20045;-74
2023/12/01 00:11:37;;;;;;;48.75;23.80;;;0.80;99.90;;;;;;4968080;28;20137;-74
2023/12/01 00:14:35;;;;;;;54.25;25.77;;;0.80;99.90;;;;;;4968763;28;20760;-74
2023/12/01 00:17:22;;;;;;;53.05;23.90;;;0.80;99.90;;;;;;4974909;28;20050;-74
2023/12/01 00:20:09;;;;;;;50.97;23.85;;;0.70;99.90;;;;;;4963953;28;20144;-74
2023/12/01 00:22:58;;;;;;;54.50;25.55;;;0.70;99.90;;;;;;4966494;28;20045;-74
2023/12/01 00:25:47;;;;;;;48.55;23.75;;;0.70;99.90;;;;;;4966610;28;20045;-74
2023/12/01 00:28:35;;;;;;;48.58;23.17;;;0.80;99.90;;;;;;4955468;28;20041;-74
2023/12/01 00:31:24;;;;;;;51.45;24.77;;;0.70;99.90;;;;;;4963920;28;20050;-74
2023/12/01 00:34:11;;;;;;;57.72;25.38;;;0.80;99.90;;;;;;4979296;28;20447;-74
2023/12/01 00:37:10;;;;;;;53.35;24.73;;;0.70;99.90;;;;;;4980224;28;20511;-74
2023/12/01 00:39:58;;;;;;;51.47;25.10;;;0.80;99.90;;;;;;4973479;28;20058;-74
2023/12/01 00:42:45;;;;;;;57.60;27.13;;;0.80;99.90;;;;;;4958885;28;20081;-74
2023/12/01 00:45:33;;;;;;;44.73;21.07;;;0.80;99.90;;;;;;4975343;28;20030;-74
2023/12/01 00:48:21;;;;;;;54.33;24.93;;;0.70;99.90;;;;;;4968564;28;20038;-74
2023/12/01 00:51:18;;;;;;;55.70;26.55;;;0.70;99.90;;;;;;4966080;28;20988;-74
2023/12/01 00:54:06;;;;;;;48.47;21.95;;;0.80;99.90;;;;;;4959695;28;20426;-74
2023/12/01 00:56:53;;;;;;;51.20;22.23;;;0.80;99.90;;;;;;4950711;28;20054;-74
2023/12/01 00:59:41;;;;;;;45.88;20.85;;;0.70;99.90;;;;;;4995846;28;20046;-74
2023/12/01 01:02:29;;;;;;;34.13;16.58;;;0.80;99.90;;;;;;4948810;28;20038;-74
2023/12/01 01:05:18;;;;;;;46.63;23.80;;;0.80;99.90;;;;;;4989754;28;20100;-74
2023/12/01 01:08:05;;;;;;;44.70;22.17;;;0.80;99.90;;;;;;4961717;28;20748;-74
2023/12/01 01:10:54;;;;;;;48.08;21.67;;;0.80;99.90;;;;;;4987827;28;20043;-74
2023/12/01 01:13:41;;;;;;;41.92;19.55;;;0.80;99.90;;;;;;4978530;28;20051;-74
2023/12/01 01:16:30;;;;;;;47.25;19.33;;;0.80;99.90;;;;;;4971272;28;20043;-74
2023/12/01 01:19:17;;;;;;;44.55;21.85;;;0.70;99.90;;;;;;4977517;28;20042;-74
2023/12/01 01:22:04;;;;;;;48.43;22.03;;;0.80;99.90;;;;;;4982510;28;20097;-74
2023/12/01 01:24:52;;;;;;;48.08;24.23;;;0.80;99.90;;;;;;4955609;28;20291;-74
2023/12/01 01:27:39;;;;;;;49.70;21.08;;;0.70;99.90;;;;;;4965394;28;20126;-74
2023/12/01 01:30:27;;;;;;;49.08;23.70;;;0.70;99.90;;;;;;4977622;28;20043;-74
2023/12/01 01:33:13;;;;;;;44.33;21.15;;;0.70;99.90;;;;;;4975294;28;20780;-74
2023/12/01 01:36:00;;;;;;;49.53;23.13;;;0.70;99.90;;;;;;4953284;28;20047;-74
2023/12/01 01:39:09;;;;;;;45.20;21.83;;;0.70;99.90;;;;;;4978834;28;20093;-74
2023/12/01 01:41:59;;;;;;;48.75;22.58;;;0.70;99.90;;;;;;4972330;28;20736;-74
2023/12/01 01:44:52;;;;;;;54.58;24.98;;;0.70;99.90;;;;;;4960299;28;20046;-74
2023/12/01 01:47:39;;;;;;;49.75;23.17;;;0.70;99.90;;;;;;4942735;28;20127;-74
2023/12/01 01:50:26;;;;;;;49.75;23.02;;;0.70;99.90;;;;;;4940496;29;20210;-75
2023/12/01 01:53:13;;;;;;;50.03;23.88;;;0.80;99.90;;;;;;4930431;29;20035;-74
2023/12/01 01:56:01;;;;;;;49.97;21.80;;;0.80;99.90;;;;;;4957842;28;20047;-74
2023/12/01 01:58:50;;;;;;;52.72;25.27;;;0.70;99.90;;;;;;4939665;28;20565;-74
2023/12/01 02:01:44;;;;;;;45.20;21.65;;;0.70;99.90;;;;;;4929515;29;20051;-74
2023/12/01 02:04:31;;;;;;;47.03;21.20;;;0.70;99.90;;;;;;4922424;29;20137;-74
2023/12/01 02:07:29;;;;;;;45.75;21.88;;;0.70;99.90;;;;;;4944148;28;20047;-74
2023/12/01 02:10:16;;;;;;;;;;;0.80;99.90;;;;;;4931871;29;20504;-75
2023/12/01 02:13:10;;;;;;;45.05;20.75;;;0.80;99.90;;;;;;4956817;28;19910;-75
2023/12/01 02:16:00;;;;;;;45.60;21.77;;;0.80;99.90;;;;;;4946335;28;20043;-74
2023/12/01 02:19:03;;;;;;;47.80;21.42;;;0.80;99.90;;;;;;4945724;29;20082;-75
2023/12/01 02:21:51;;;;;;;;;;;0.80;99.90;;;;;;4936332;29;20078;-74
2023/12/01 02:24:39;;;;;;;40.50;19.35;;;0.80;99.90;;;;;;4923955;29;20312;-74
2023/12/01 02:27:26;;;;;;;47.25;22.05;;;0.80;99.90;;;;;;4948403;29;20043;-75
2023/12/01 02:30:20;;;;;;;44.63;20.77;;;0.80;99.90;;;;;;4927992;29;20102;-74
2023/12/01 02:33:12;;;;;;;46.05;21.73;;;0.80;99.90;;;;;;4942214;29;20437;-75
2023/12/01 02:35:59;;;;;;;45.92;21.75;;;0.80;99.90;;;;;;4889693;29;20035;-74
2023/12/01 02:38:46;;;;;;;45.35;21.00;;;0.80;99.90;;;;;;4883324;29;20050;-74
2023/12/01 02:41:34;;;;;;;45.50;20.77;;;0.80;99.90;;;;;;4898210;29;20139;-74
2023/12/01 02:44:21;;;;;;;43.65;20.40;;;0.70;99.90;;;;;;4915976;28;20042;-74
2023/12/01 02:47:09;;;;;;;45.28;21.55;;;0.70;99.90;;;;;;4927388;29;20437;-74
2023/12/01 02:53:47;;;;;;;43.88;20.75;;;0.70;99.90;;;;;;4950679;29;20031;-74
2023/12/01 02:56:41;;;;;;;46.17;21.25;;;0.80;99.90;;;;;;4928322;29;20543;-74
2023/12/01 02:59:27;;;;;;;42.67;20.52;;;0.80;99.90;;;;;;4909963;29;20047;-74
2023/12/01 03:02:15;;;;;;;43.20;21.73;;;0.70;99.90;;;;;;4920591;29;20341;-74
2023/12/01 03:05:46;;;;;;;42.60;19.52;;;0.70;99.90;;;;;;4906162;29;20118;-74
2023/12/01 03:08:34;;;;;;;43.75;19.73;;;0.70;99.90;;;;;;4966687;28;20760;-74
2023/12/01 03:11:24;;;;;;;43.58;21.08;;;0.70;99.90;;;;;;4930483;29;20109;-74
2023/12/01 03:14:11;;;;;;;45.40;20.33;;;0.70;99.90;;;;;;4919656;29;20047;-74
2023/12/01 03:16:59;;;;;;;46.50;20.08;;;0.70;99.90;;;;;;4929138;29;20382;-74
2023/12/01 03:20:10;;;;;;;46.22;22.48;;;0.70;99.90;;;;;;4919143;29;20047;-74
2023/12/01 03:22:57;;;;;;;47.60;21.05;;;0.70;99.90;;;;;;4905284;29;20191;-74
2023/12/01 03:26:01;;;;;;;43.65;20.35;;;0.70;99.90;;;;;;4918564;29;20083;-74
2023/12/01 03:28:47;;;;;;;44.13;20.00;;;0.70;99.90;;;;;;4866155;29;20048;-74
2023/12/01 03:31:35;;;;;;;40.85;18.92;;;0.60;99.90;;;;;;4844691;29;20423;-74
2023/12/01 03:34:23;;;;;;;43.03;19.92;;;0.70;99.90;;;;;;4892936;29;20044;-74
2023/12/01 03:37:10;;;;;;;46.95;19.92;;;0.70;99.90;;;;;;4870310;29;20040;-74
2023/12/01 03:39:58;;;;;;;44.08;22.95;;;0.70;99.90;;;;;;4852774;29;20057;-74
2023/12/01 03:42:47;;;;;;;50.60;21.65;;;0.70;99.90;;;;;;4878362;29;20153;-74
2023/12/01 03:45:33;;;;;;;44.67;21.17;;;0.60;99.90;;;;;;4869207;29;20037;-74
2023/12/01 03:48:21;;;;;;;42.13;20.27;;;0.60;99.90;;;;;;4869483;29;20370;-74
2023/12/01 03:51:09;;;;;;;42.53;20.92;;;0.60;99.90;;;;;;4881616;29;20101;-73
2023/12/01 03:53:57;;;;;;;46.03;22.45;;;0.70;99.90;;;;;;4925394;29;20054;-74
2023/12/01 03:56:44;;;;;;;44.03;21.83;;;0.70;99.90;;;;;;4932396;29;20142;-73
2023/12/01 03:59:32;;;;;;;49.85;23.73;;;0.70;99.90;;;;;;4940483;28;20133;-74
2023/12/01 04:02:46;;;;;;;46.63;21.58;;;0.60;99.90;;;;;;4927516;29;20229;-74
2023/12/01 04:05:33;;;;;;;47.58;22.77;;;0.70;99.90;;;;;;4948101;28;20441;-74
2023/12/01 04:08:21;;;;;;;52.07;22.53;;;0.70;99.90;;;;;;4953322;29;20035;-74
2023/12/01 04:11:09;;;;;;;46.60;22.27;;;0.60;99.90;;;;;;4932935;29;20259;-74
2023/12/01 04:13:57;;;;;;;52.13;23.70;;;0.60;99.90;;;;;;4943935;28;20174;-74
2023/12/01 04:16:47;;;;;;;52.20;22.45;;;0.60;99.90;;;;;;4943909;28;20047;-74
2023/12/01 04:19:38;;;;;;;49.35;21.50;;;0.60;99.90;;;;;;4941532;28;20047;-74
2023/12/01 04:22:25;;;;;;;43.72;18.33;;;0.60;99.90;;;;;;4957726;28;20436;-74
2023/12/01 04:29:08;;;;;;;44.03;20.10;;;0.60;99.90;;;;;;4956128;28;20567;-74
2023/12/01 04:31:56;;;;;;;40.60;17.13;;;0.60;99.90;;;;;;4990608;28;20073;-74
2023/12/01 04:34:43;;;;;;;39.42;19.40;;;0.60;99.90;;;;;;5001866;28;20033;-74
2023/12/01 04:37:31;;;;;;;39.53;17.17;;;0.60;99.90;;;;;;4986586;28;20046;-74
2023/12/01 04:40:17;;;;;;;43.75;19.90;;;0.60;99.90;;;;;;4980865;28;20030;-75
2023/12/01 04:43:03;;;;;;;40.50;20.15;;;0.60;99.90;;;;;;4970560;28;20062;-75
2023/12/01 04:45:49;;;;;;;43.85;19.48;;;0.70;99.90;;;;;;5004394;28;20038;-75
2023/12/01 04:48:36;;;;;;;39.47;19.67;;;0.60;99.90;;;;;;5013594;28;20033;-74
2023/12/01 04:55:18;;;;;;;45.35;19.02;;;0.70;99.90;;;;;;5000033;28;20483;-75
2023/12/01 05:01:58;;;;;;;44.67;22.05;;;0.70;99.90;;;;;;4999094;28;20359;-74
2023/12/01 05:04:47;;;;;;;42.38;20.02;;;0.60;99.90;;;;;;4986549;28;20030;-74
2023/12/01 05:07:34;;;;;;;43.83;18.70;;;0.70;99.90;;;;;;4992570;28;20065;-74
2023/12/01 05:10:22;;;;;;;30.30;13.80;;;0.60;99.90;;;;;;4995293;28;20048;-74
2023/12/01 05:13:31;;;;;;;34.72;16.73;;;0.70;99.90;;;;;;4998210;28;20390;-74
2023/12/01 05:16:18;;;;;;;36.70;16.67;;;0.60;99.90;;;;;;4977750;28;20344;-74
2023/12/01 05:19:06;;;;;;;32.92;15.88;;;0.60;99.90;;;;;;5012070;28;20041;-74
2023/12/01 05:21:53;;;;;;;28.47;15.43;;;0.60;99.90;;;;;;5005246;28;20110;-74
2023/12/01 05:24:40;;;;;;;33.65;17.20;;;0.60;99.90;;;;;;4988645;28;20317;-74
2023/12/01 05:27:34;;;;;;;32.35;15.52;;;0.60;99.90;;;;;;5011081;28;20455;-73
2023/12/01 05:30:23;;;;;;;35.95;17.90;;;0.60;99.90;;;;;;4984340;28;20103;-74
2023/12/01 05:33:15;;;;;;;35.55;16.63;;;0.60;99.90;;;;;;4972057;28;20414;-74
2023/12/01 05:36:02;;;;;;;32.85;16.33;;;0.60;99.90;;;;;;4983971;28;20352;-74
2023/12/01 05:38:49;;;;;;;31.33;16.60;;;0.60;99.90;;;;;;4990739;28;20042;-74
2023/12/01 05:41:38;;;;;;;33.70;16.60;;;0.60;99.90;;;;;;4966019;28;20514;-74
2023/12/01 05:44:25;;;;;;;31.38;15.77;;;0.60;99.90;;;;;;4961993;28;20046;-74
2023/12/01 05:47:12;;;;;;;32.65;16.65;;;0.60;99.90;;;;;;4976613;28;20034;-74
2023/12/01 05:50:00;;;;;;;35.70;17.00;;;0.60;99.90;;;;;;4988841;28;20050;-74
2023/12/01 05:52:48;;;;;;;35.28;17.50;;;0.60;99.90;;;;;;4994957;28;20047;-74
2023/12/01 05:55:35;;;;;;;38.33;19.23;;;0.60;99.90;;;;;;4970603;28;20371;-74
2023/12/01 05:58:23;;;;;;;36.78;18.23;;;0.60;99.90;;;;;;4982657;28;20120;-73
2023/12/01 06:01:16;;;;;;;39.60;18.60;;;0.60;99.90;;;;;;4983667;28;20066;-74
2023/12/01 06:04:03;;;;;;;38.03;18.67;;;0.60;99.90;;;;;;4989358;28;20073;-74
2023/12/01 06:06:51;;;;;;;33.10;16.88;;;0.60;99.90;;;;;;4985578;28;20033;-74
2023/12/01 06:09:38;;;;;;;30.33;15.48;;;0.60;99.90;;;;;;4981070;28;20878;-74
2023/12/01 06:12:25;;;;;;;30.33;13.52;;;0.60;99.90;;;;;;4986104;28;20430;-74
2023/12/01 06:15:16;;;;;;;29.13;15.43;;;0.60;99.90;;;;;;4949973;28;20441;-74
2023/12/01 06:18:02;;;;;;;28.85;14.52;;;0.60;99.90;;;;;;4961244;28;20066;-74
2023/12/01 06:20:50;;;;;;;26.85;13.70;;;0.60;99.90;;;;;;5000353;28;20046;-74
2023/12/01 06:23:44;;;;;;;28.55;13.98;;;0.60;99.90;;;;;;5000897;28;20371;-74
2023/12/01 06:26:32;;;;;;;26.48;13.75;;;0.60;99.90;;;;;;5008928;28;20037;-74
2023/12/01 06:29:44;;;;;;;26.50;13.20;;;0.60;99.90;;;;;;4992162;28;20109;-73
2023/12/01 06:32:52;;;;;;;26.05;13.07;;;0.60;99.90;;;;;;5002359;28;20042;-73
2023/12/01 06:35:39;;;;;;;25.45;14.57;;;0.60;99.90;;;;;;4970707;28;20038;-74
2023/12/01 06:38:27;;;;;;;23.17;12.52;;;0.60;99.90;;;;;;4974218;28;20053;-75
2023/12/01 06:41:14;;;;;;;25.05;12.50;;;0.60;99.90;;;;;;4975203;28;20476;-73
2023/12/01 06:44:01;;;;;;;25.87;12.47;;;0.50;99.90;;;;;;4949708;28;20070;-73
2023/12/01 06:47:28;;;;;;;20.60;11.02;;;0.50;99.90;;;;;;4980004;28;20057;-74
2023/12/01 06:50:16;;;;;;;;;;;0.50;99.90;;;;;;4989358;28;20038;-73
2023/12/01 06:53:05;;;;;;;18.75;10.38;;;0.50;99.90;;;;;;4977308;28;19926;-75
2023/12/01 06:55:52;;;;;;;21.20;10.98;;;0.50;99.90;;;;;;4965544;28;20046;-73
2023/12/01 06:58:42;;;;;;;22.17;11.50;;;0.50;99.90;;;;;;4981702;28;20045;-73
2023/12/01 07:01:30;;;;;;;18.85;10.77;;;0.50;99.90;;;;;;4985159;28;20105;-73
2023/12/01 07:04:18;;;;;;;17.80;9.48;;;0.50;99.90;;;;;;4967647;28;20114;-73
2023/12/01 07:07:05;;;;;;;16.42;9.70;;;0.50;99.90;;;;;;4961506;28;20582;-73
2023/12/01 07:09:52;;;;;;;17.73;9.68;;;0.50;99.90;;;;;;4997685;28;20097;-73
2023/12/01 07:12:38;;;;;;;15.48;8.85;;;0.50;99.90;;;;;;4977570;28;20037;-73
2023/12/01 07:15:25;;;;;;;15.88;9.05;;;0.50;99.90;;;;;;4980722;28;20092;-73
2023/12/01 07:18:13;;;;;;;14.73;8.55;;;0.50;99.90;;;;;;4967144;28;20049;-73
2023/12/01 07:21:05;;;;;;;15.52;8.85;;;0.50;99.90;;;;;;4984107;28;20050;-74
2023/12/01 07:23:52;;;;;;;15.52;9.05;;;0.40;99.90;;;;;;4979585;28;20068;-73
2023/12/01 07:26:40;;;;;;;18.25;9.35;;;0.40;99.90;;;;;;4987508;28;20031;-74
2023/12/01 07:29:27;;;;;;;16.42;9.27;;;0.50;99.90;;;;;;4985913;28;20037;-74
2023/12/01 07:32:14;;;;;;;16.52;9.45;;;0.50;99.90;;;;;;4988496;28;20069;-74
2023/12/01 07:35:05;;;;;;;19.55;9.05;;;0.40;99.90;;;;;;4972992;28;20135;-74
2023/12/01 07:37:53;;;;;;;14.73;8.68;;;0.50;99.90;;;;;;4973771;28;20379;-74
2023/12/01 07:40:39;;;;;;;18.23;10.15;;;0.50;99.90;;;;;;4966854;28;20375;-74
2023/12/01 07:44:06;;;;;;;15.48;9.05;;;0.50;99.90;;;;;;4981411;28;20065;-74
2023/12/01 07:46:53;;;;;;;;;;;0.50;99.90;;;;;;4993397;28;20045;-73
2023/12/01 07:49:41;;;;;;;17.73;9.20;;;0.50;99.90;;;;;;4982753;28;19924;-74
2023/12/01 07:52:54;;;;;;;15.15;8.23;;;0.40;99.90;;;;;;4973439;28;20490;-73
2023/12/01 07:55:41;;;;;;;14.20;7.90;;;0.50;99.90;;;;;;4992902;28;20053;-73
2023/12/01 08:10:08;;;;;;;16.50;9.50;;;0.50;99.90;;;;;;5016388;28;20038;-74
2023/12/01 08:12:56;;;;;;;15.02;9.02;;;0.50;99.90;;;;;;5015103;28;20122;-73
2023/12/01 08:15:50;;;;;;;;;;;0.50;99.90;;;;;;4983465;28;20479;-73
2023/12/01 08:18:40;;;;;;;22.38;11.50;;;0.50;99.90;;;;;;5000227;28;19914;-73
2023/12/01 08:25:57;;;;;;;21.10;11.50;;;0.60;99.90;;;;;;5015326;28;20108;-73
2023/12/01 08:28:45;;;;;;;21.52;11.77;;;0.60;99.90;;;;;;4999464;28;20038;-73
2023/12/01 08:31:35;;;;;;;21.92;12.13;;;0.60;99.90;;;;;;4999872;28;20056;-73
2023/12/01 08:34:23;;;;;;;24.38;12.52;;;0.60;99.90;;;;;;5001773;28;20053;-73
2023/12/01 08:37:27;;;;;;;23.83;12.60;;;0.60;99.90;;;;;;4986535;28;20488;-73
2023/12/01 08:40:14;;;;;;;24.98;11.38;;;0.60;99.90;;;;;;4985116;28;20135;-74
2023/12/01 08:43:02;;;;;;;20.58;11.10;;;0.60;99.90;;;;;;4997207;28;20039;-74
2023/12/01 08:45:48;;;;;;;16.30;9.18;;;0.60;99.90;;;;;;4998428;28;20034;-74
2023/12/01 08:48:35;;;;;;;19.33;11.13;;;0.60;99.90;;;;;;5018009;28;20474;-74
2023/12/01 08:51:22;;;;;;;20.95;10.20;;;0.60;99.90;;;;;;4971575;28;20069;-73
2023/12/01 08:54:10;;;;;;;19.87;10.33;;;0.60;99.90;;;;;;5008614;28;20371;-74
2023/12/01 08:56:58;;;;;;;18.20;10.55;;;0.60;99.90;;;;;;4983972;28;20046;-73
2023/12/01 09:00:20;;;;;;;16.38;9.25;;;0.60;99.90;;;;;;4970271;28;20046;-73
2023/12/01 09:03:08;;;;;;;20.13;9.77;;;0.60;99.90;;;;;;4982343;28;20042;-73
2023/12/01 09:06:22;;;;;;;19.00;10.45;;;0.60;99.90;;;;;;4978414;28;20366;-75
2023/12/01 09:09:12;;;;;;;17.05;9.98;;;0.60;99.90;;;;;;4978510;28;20038;-75
2023/12/01 09:12:00;;;;;;;16.15;8.88;;;0.60;99.90;;;;;;4981005;28;20072;-75
2023/12/01 09:14:48;;;;;;;18.10;9.65;;;0.60;99.90;;;;;;4974007;28;20042;-75
2023/12/01 09:17:35;;;;;;;16.55;9.25;;;0.60;99.90;;;;;;4988571;28;20045;-76
2023/12/01 09:20:21;;;;;;;19.05;10.10;;;0.60;99.90;;;;;;4961270;28;20042;-75
2023/12/01 09:27:00;;;;;;;10.68;6.95;;;0.60;99.90;;;;;;5011543;28;20027;-76
2023/12/01 09:29:47;;;;;;;14.80;8.80;;;0.60;99.90;;;;;;4983139;28;20072;-75
2023/12/01 09:32:33;;;;;;;11.75;7.30;;;0.70;99.90;;;;;;4999510;28;20037;-75
2023/12/01 09:39:15;;;;;;;14.68;8.52;;;0.70;99.90;;;;;;5002451;28;20026;-75
2023/12/01 09:42:05;;;;;;;13.02;7.57;;;0.70;99.90;;;;;;4981220;28;20047;-76
2023/12/01 09:44:54;;;;;;;13.32;8.57;;;0.70;99.90;;;;;;4985524;28;20389;-75
2023/12/01 09:47:59;;;;;;;14.00;8.00;;;0.80;99.90;;;;;;4981663;28;20050;-75
2023/12/01 09:50:47;;;;;;;16.67;8.73;;;0.90;99.90;;;;;;4972058;28;20037;-75
2023/12/01 09:53:34;;;;;;;;;;;0.90;99.90;;;;;;4986207;28;20509;-75
2023/12/01 09:56:22;;;;;;;14.95;8.23;;;1.10;99.90;;;;;;5034514;28;19912;-73
2023/12/01 09:59:20;;;;;;;18.17;9.75;;;1.10;99.90;;;;;;5016016;28;20128;-74
2023/12/01 10:02:07;;;;;;;18.60;10.30;;;1.20;99.90;;;;;;5003704;28;20045;-74
2023/12/01 10:05:13;;;;;;;16.20;9.77;;;1.20;99.90;;;;;;5005426;28;20487;-74
2023/12/01 10:08:01;;;;;;;15.57;8.90;;;1.10;99.90;;;;;;4985646;28;20042;-74
2023/12/01 10:11:22;;;;;;;16.10;10.00;;;1.20;99.90;;;;;;5027636;28;20100;-74
2023/12/01 10:14:10;;;;;;;17.73;9.88;;;1.40;99.90;;;;;;5003436;28;20052;-74
2023/12/01 10:17:02;;;;;;;16.23;9.73;;;1.60;99.90;;;;;;4997288;28;20037;-76
2023/12/01 10:19:51;;;;;;;15.65;9.68;;;1.70;99.90;;;;;;4983867;28;20060;-74
2023/12/01 10:22:38;;;;;;;15.68;8.80;;;1.70;99.90;;;;;;4996114;28;20682;-77
2023/12/01 10:25:27;;;;;;;14.97;9.23;;;1.60;99.90;;;;;;5021808;28;20034;-73
2023/12/01 10:28:16;;;;;;;13.25;7.28;;;1.60;99.90;;;;;;5006804;28;20049;-74
2023/12/01 10:31:09;;;;;;;14.20;8.02;;;1.60;99.90;;;;;;5023568;28;20120;-77
2023/12/01 10:33:56;;;;;;;17.98;9.07;;;1.50;99.90;;;;;;5012106;28;20103;-76
2023/12/01 10:36:43;;;;;;;19.92;9.88;;;1.70;99.90;;;;;;4989978;28;20033;-77
2023/12/01 10:39:31;;;;;;;16.10;8.50;;;2.00;99.90;;;;;;5016240;28;20041;-75
2023/12/01 10:42:18;;;;;;;14.68;8.45;;;2.20;99.90;;;;;;4988409;28;20042;-73
2023/12/01 10:45:06;;;;;;;11.05;7.07;;;2.80;99.90;;;;;;4994746;28;20034;-74
2023/12/01 10:47:54;;;;;;;11.85;7.10;;;3.50;99.90;;;;;;5007337;28;20048;-75
2023/12/01 10:50:42;;;;;;;12.20;7.07;;;3.70;99.90;;;;;;5008936;28;20049;-75
2023/12/01 10:53:29;;;;;;;;;;;3.50;99.90;;;;;;5008904;28;20046;-73
2023/12/01 10:56:16;;;;;;;10.85;6.55;;;3.80;99.90;;;;;;5000688;28;19960;-74
2023/12/01 10:59:04;;;;;;;13.75;7.38;;;4.10;99.90;;;;;;5006070;28;20108;-73
2023/12/01 11:01:50;;;;;;;11.07;6.78;;;4.10;99.90;;;;;;4984598;28;20064;-73
2023/12/01 11:04:37;;;;;;;11.93;6.85;;;3.80;99.90;;;;;;4987310;28;20073;-73
2023/12/01 11:07:47;;;;;;;11.55;7.00;;;3.50;99.90;;;;;;4992952;28;20064;-74
2023/12/01 11:10:55;;;;;;;11.27;7.15;;;3.20;99.90;;;;;;5013160;28;20047;-73
2023/12/01 11:13:44;;;;;;;;;;;3.00;99.90;;;;;;5008497;28;20045;-74
2023/12/01 11:16:31;;;;;;;12.38;7.10;;;2.80;99.90;;;;;;5018207;28;19913;-76
2023/12/01 11:19:18;;;;;;;11.20;6.45;;;2.70;99.90;;;;;;5012692;28;20103;-74
2023/12/01 11:22:30;;;;;;;9.00;5.22;;;2.60;99.90;;;;;;5009271;28;20046;-74
2023/12/01 11:25:56;;;;;;;14.30;7.50;;;2.60;99.90;;;;;;5014369;28;20355;-74
2023/12/01 11:31:41;;;;;;;10.73;6.65;;;2.40;99.90;;;;;;4995147;28;20133;-77
2023/12/01 11:34:27;;;;;;;11.43;6.60;;;2.30;99.90;;;;;;4978739;28;20047;-79
2023/12/01 11:37:15;;;;;;;12.23;8.73;;;2.10;99.90;;;;;;4953323;28;20049;-74
2023/12/01 11:40:22;;;;;;;10.90;6.57;;;2.00;99.90;;;;;;4980300;28;20053;-74
2023/12/01 11:43:12;;;;;;;9.15;5.78;;;2.00;99.90;;;;;;4974163;28;20045;-74
2023/12/01 11:46:08;;;;;;;10.23;6.15;;;1.90;99.90;;;;;;4988310;28;20518;-74
2023/12/01 11:48:56;;;;;;;11.15;6.57;;;1.90;99.90;;;;;;5020994;28;20041;-74
2023/12/01 11:51:43;;;;;;;10.88;6.53;;;1.80;99.90;;;;;;5004361;28;20034;-74
2023/12/01 11:54:37;;;;;;;11.65;6.00;;;1.70;99.90;;;;;;4998793;28;20055;-74
2023/12/01 11:57:25;;;;;;;10.55;6.55;;;1.70;99.90;;;;;;5012903;28;20120;-75
2023/12/01 12:00:13;;;;;;;10.32;6.30;;;1.50;99.90;;;;;;4996675;28;20061;-74
2023/12/01 12:03:01;;;;;;;10.82;5.97;;;1.50;99.90;;;;;;4974943;28;20039;-74
2023/12/01 12:05:48;;;;;;;12.10;6.43;;;1.50;99.90;;;;;;4958220;28;20092;-74
2023/12/01 12:08:36;;;;;;;10.82;6.03;;;1.40;99.90;;;;;;4968159;28;20376;-74
2023/12/01 12:11:23;;;;;;;10.38;5.95;;;1.40;99.90;;;;;;4972741;28;20073;-74
2023/12/01 12:14:11;;;;;;;12.52;6.65;;;1.30;99.90;;;;;;4999551;28;20083;-74
2023/12/01 12:16:59;;;;;;;10.30;6.10;;;1.20;99.90;;;;;;4966602;28;20489;-74
2023/12/01 12:19:47;;;;;;;9.70;6.05;;;1.20;99.90;;;;;;4994693;28;20184;-74
2023/12/01 12:22:36;;;;;;;9.93;5.97;;;1.20;99.90;;;;;;5017069;28;20048;-74
2023/12/01 12:25:23;;;;;;;11.93;7.25;;;1.10;99.90;;;;;;4981267;28;20485;-74
2023/12/01 12:28:10;;;;;;;11.98;6.22;;;1.10;99.90;;;;;;4979900;28;20031;-74
2023/12/01 12:30:58;;;;;;;12.82;6.97;;;1.10;99.90;;;;;;4987321;28;20054;-74
2023/12/01 12:33:48;;;;;;;13.30;7.20;;;1.00;99.90;;;;;;4992771;28;20050;-74
2023/12/01 12:36:39;;;;;;;13.43;7.60;;;1.00;99.90;;;;;;4989315;28;20042;-74
2023/12/01 12:39:30;;;;;;;12.13;7.38;;;0.90;99.90;;;;;;4973880;28;20386;-74
2023/12/01 12:42:18;;;;;;;13.00;6.78;;;0.80;99.90;;;;;;4997294;28;20049;-74
2023/12/01 12:45:06;;;;;;;13.75;7.22;;;0.50;99.90;;;;;;4998485;28;20383;-74
2023/12/01 12:48:09;;;;;;;11.25;6.65;;;0.40;99.90;;;;;;4979127;28;20034;-74
2023/12/01 12:51:01;;;;;;;14.00;6.72;;;0.30;99.90;;;;;;4977315;28;20128;-74
2023/12/01 12:53:48;;;;;;;12.82;7.20;;;0.20;99.90;;;;;;4984330;28;20121;-74
2023/12/01 12:56:36;;;;;;;17.17;6.85;;;0.20;99.90;;;;;;4996706;28;20185;-74
2023/12/01 12:59:23;;;;;;;11.23;5.93;;;0.10;99.90;;;;;;5003321;28;20177;-74
2023/12/01 13:02:12;;;;;;;14.75;7.03;;;-0.10;99.90;;;;;;4983866;28;20050;-74
2023/12/01 13:05:01;;;;;;;13.80;8.00;;;0.10;99.90;;;;;;4989800;28;20102;-74
2023/12/01 13:07:48;;;;;;;14.23;6.70;;;0.00;99.90;;;;;;4985075;28;20073;-74
2023/12/01 13:10:36;;;;;;;12.60;6.77;;;-0.10;99.90;;;;;;4980237;28;20105;-74
2023/12/01 13:13:23;;;;;;;16.85;6.97;;;0.10;99.90;;;;;;4999609;28;20038;-74
2023/12/01 13:16:11;;;;;;;12.10;6.95;;;0.20;99.90;;;;;;4984720;28;20057;-74
2023/12/01 13:18:58;;;;;;;10.68;6.50;;;0.30;99.90;;;;;;4971426;28;20038;-74
2023/12/01 13:21:46;;;;;;;11.27;5.78;;;0.40;99.90;;;;;;4990655;28;20045;-74
2023/12/01 13:24:34;;;;;;;9.25;5.43;;;0.40;99.90;;;;;;4984776;28;20054;-74
2023/12/01 13:27:21;;;;;;;9.50;5.07;;;0.60;99.90;;;;;;4970840;28;20034;-75
2023/12/01 13:30:09;;;;;;;10.98;5.95;;;0.50;99.90;;;;;;4974245;28;20069;-75
2023/12/01 13:32:57;;;;;;;9.15;5.47;;;0.50;99.90;;;;;;5001563;28;20057;-75
2023/12/01 13:35:44;;;;;;;11.20;6.25;;;0.50;99.90;;;;;;4957415;28;20046;-74
2023/12/01 13:38:32;;;;;;;13.05;6.40;;;0.50;99.90;;;;;;4993460;28;20093;-74
2023/12/01 13:41:19;;;;;;;12.60;6.65;;;0.50;99.90;;;;;;4983073;28;20077;-75
2023/12/01 13:44:07;;;;;;;11.70;6.10;;;0.60;99.90;;;;;;4979494;28;20451;-75
2023/12/01 13:46:54;;;;;;;9.00;6.03;;;0.50;99.90;;;;;;4980319;28;20517;-75
2023/12/01 13:49:42;;;;;;;12.13;6.60;;;0.60;99.90;;;;;;4975822;28;20043;-74
2023/12/01 13:52:28;;;;;;;9.98;6.22;;;0.60;99.90;;;;;;4998931;28;20034;-74
2023/12/01 13:55:16;;;;;;;10.00;6.13;;;0.60;99.90;;;;;;4981261;28;20057;-75
2023/12/01 13:58:06;;;;;;;9.88;5.65;;;0.70;99.90;;;;;;4969928;28;20126;-74
2023/12/01 14:00:53;;;;;;;10.95;6.43;;;0.60;99.90;;;;;;5005873;28;20133;-74
2023/12/01 14:03:40;;;;;;;11.25;5.97;;;0.60;99.90;;;;;;4973273;28;20490;-74
2023/12/01 14:06:28;;;;;;;10.13;6.50;;;0.70;99.90;;;;;;4985441;28;20072;-74
2023/12/01 14:09:16;;;;;;;11.48;6.10;;;0.70;99.90;;;;;;4984750;28;20345;-74
2023/12/01 14:12:04;;;;;;;9.93;5.93;;;0.70;99.90;;;;;;4971569;28;20093;-74
2023/12/01 14:14:52;;;;;;;;;;;0.70;99.90;;;;;;4980266;28;20097;-74
2023/12/01 14:17:39;;;;;;;10.88;6.78;;;0.60;99.90;;;;;;4986664;28;19914;-74
2023/12/01 14:20:26;;;;;;;7.80;4.88;;;0.60;99.90;;;;;;5009959;28;20367;-74
2023/12/01 14:23:14;;;;;;;9.88;5.95;;;0.60;99.90;;;;;;4996004;28;20030;-74
2023/12/01 14:26:01;;;;;;;10.77;6.45;;;0.60;99.90;;;;;;4970054;28;20068;-74
2023/12/01 14:28:49;;;;;;;11.55;5.72;;;0.50;99.90;;;;;;4977447;28;20100;-74
2023/12/01 14:31:36;;;;;;;10.30;5.63;;;0.50;99.90;;;;;;4975063;28;20069;-74
2023/12/01 14:34:23;;;;;;;9.38;5.40;;;0.60;99.90;;;;;;4982114;28;20039;-74
2023/12/01 14:37:09;;;;;;;9.65;5.32;;;0.60;99.90;;;;;;4952794;28;20043;-74
2023/12/01 14:39:58;;;;;;;9.90;5.95;;;0.60;99.90;;;;;;4962412;28;20067;-74
2023/12/01 14:42:45;;;;;;;11.15;6.28;;;0.60;99.90;;;;;;4959489;28;20031;-74
2023/12/01 14:45:32;;;;;;;14.73;6.75;;;0.60;99.90;;;;;;4960930;28;20050;-74
2023/12/01 14:48:19;;;;;;;12.73;7.00;;;0.60;99.90;;;;;;4929727;29;20064;-74
2023/12/01 14:51:12;;;;;;;13.32;7.07;;;0.60;99.90;;;;;;4958264;28;20049;-74
2023/12/01 14:54:00;;;;;;;12.20;7.55;;;0.60;99.90;;;;;;4949625;28;20474;-74
2023/12/01 14:56:51;;;;;;;12.88;7.68;;;0.60;99.90;;;;;;4949375;28;20180;-74
2023/12/01 14:59:38;;;;;;;15.18;8.10;;;0.50;99.90;;;;;;4974215;28;20419;-74
2023/12/01 15:02:26;;;;;;;13.93;8.70;;;0.50;99.90;;;;;;4965266;28;20046;-74
2023/12/01 15:05:13;;;;;;;12.63;7.65;;;0.50;99.90;;;;;;4978477;28;20103;-74
2023/12/01 15:08:01;;;;;;;12.88;7.50;;;0.50;99.90;;;;;;4989884;28;20044;-74
2023/12/01 15:10:49;;;;;;;12.02;7.72;;;0.50;99.90;;;;;;5016201;28;20094;-74
2023/12/01 15:13:36;;;;;;;11.85;7.45;;;0.50;99.90;;;;;;5012753;28;20153;-74
2023/12/01 15:16:24;;;;;;;13.15;6.78;;;0.50;99.90;;;;;;4997477;28;20073;-73
2023/12/01 15:19:11;;;;;;;13.02;7.72;;;0.50;99.90;;;;;;5005644;28;20378;-75
2023/12/01 15:21:59;;;;;;;14.27;7.47;;;0.50;99.90;;;;;;5006618;28;20494;-74
2023/12/01 15:24:47;;;;;;;14.55;9.07;;;0.50;99.90;;;;;;5010004;28;20358;-74